Time;durP1;ratioP1;P1;durP2;ratioP2;P2;SDS_P1;SDS_P2;PMS_P1;PMS_P2;Temp;Humidity;BMP_temperature;BMP_pressure;BME280_temperature;BME280_humidity;BME280_pressure;Samples;Min_cycle;Max_cycle;Signal;HPM_P1;HPM_P2
2023/10/04 00:00:15;;;;;;;4.65;1.95;;;;;;;;;;470219;28;1040;-72
2023/10/04 00:00:31;;;;;;;3.83;2.20;;;;;;;;;;471362;28;1293;-72
2023/10/04 00:00:47;;;;;;;4.97;2.30;;;;;;;;;;476361;28;1409;-72
2023/10/04 00:01:04;;;;;;;4.90;2.10;;;;;;;;;;475793;28;1391;-72
2023/10/04 00:01:21;;;;;;;4.15;2.10;;;;;;;;;;468636;28;1168;-72
2023/10/04 00:01:37;;;;;;;4.78;2.25;;;;;;;;;;472705;28;935;-72
2023/10/04 00:01:53;;;;;;;4.13;2.05;;;;;;;;;;475663;28;1642;-72
2023/10/04 00:02:09;;;;;;;3.60;2.00;;;;;;;;;;475885;28;954;-72
2023/10/04 00:02:24;;;;;;;4.28;2.15;;;;;;;;;;471005;28;1290;-72
2023/10/04 00:02:43;;;;;;;4.43;2.20;;;;;;;;;;473095;28;1232;-72
2023/10/04 00:02:58;;;;;;;3.72;2.00;;;;;;;;;;472468;28;1142;-72
2023/10/04 00:03:13;;;;;;;3.90;2.00;;;;;;;;;;473699;28;942;-72
2023/10/04 00:03:29;;;;;;;3.72;1.90;;;;;;;;;;476203;28;1415;-72
2023/10/04 00:03:46;;;;;;;3.43;1.90;;;;;;;;;;471510;28;1299;-72
2023/10/04 00:04:02;;;;;;;4.55;2.13;;;;;;;;;;473544;28;1496;-72
2023/10/04 00:04:17;;;;;;;5.07;2.30;;;;;;;;;;469205;28;1074;-72
2023/10/04 00:04:34;;;;;;;4.40;2.00;;;;;;;;;;467676;28;891;-72
2023/10/04 00:04:49;;;;;;;4.00;1.98;;;;;;;;;;468738;28;1530;-72
2023/10/04 00:05:06;;;;;;;3.58;1.90;;;;;;;;;;467659;28;930;-72
2023/10/04 00:05:24;;;;;;;3.63;1.70;;;;;;;;;;467302;28;1375;-72
2023/10/04 00:05:41;;;;;;;3.80;1.85;;;;;;;;;;468836;28;914;-71
2023/10/04 00:05:56;;;;;;;4.20;2.00;;;;;;;;;;472010;28;920;-72
2023/10/04 00:06:11;;;;;;;5.07;2.25;;;;;;;;;;473235;28;1050;-72
2023/10/04 00:06:27;;;;;;;4.27;2.10;;;;;;;;;;473570;28;1036;-71
2023/10/04 00:06:42;;;;;;;3.53;2.00;;;;;;;;;;473551;28;969;-72
2023/10/04 00:06:59;;;;;;;4.18;2.20;;;;;;;;;;474894;28;1124;-72
2023/10/04 00:07:15;;;;;;;3.55;2.03;;;;;;;;;;473727;28;1187;-71
2023/10/04 00:07:32;;;;;;;3.72;2.03;;;;;;;;;;474072;28;1560;-72
2023/10/04 00:07:52;;;;;;;5.22;2.17;;;;;;;;;;476928;28;1970;-72
2023/10/04 00:08:08;;;;;;;5.47;2.20;;;;;;;;;;470856;28;1191;-72
2023/10/04 00:08:25;;;;;;;4.03;1.95;;;;;;;;;;470076;28;1212;-72
2023/10/04 00:08:40;;;;;;;3.65;1.80;;;;;;;;;;470607;28;1544;-72
2023/10/04 00:08:55;;;;;;;4.00;1.90;;;;;;;;;;473067;28;1218;-72
2023/10/04 00:09:11;;;;;;;3.58;1.85;;;;;;;;;;474343;28;1039;-72
2023/10/04 00:09:26;;;;;;;3.17;1.80;;;;;;;;;;469669;28;1302;-72
2023/10/04 00:09:41;;;;;;;3.83;1.90;;;;;;;;;;471320;28;1189;-72
2023/10/04 00:09:57;;;;;;;3.90;1.98;;;;;;;;;;468847;28;1375;-72
2023/10/04 00:10:13;;;;;;;3.93;1.90;;;;;;;;;;472594;28;1124;-72
2023/10/04 00:10:29;;;;;;;4.50;1.98;;;;;;;;;;471746;28;1316;-72
2023/10/04 00:10:44;;;;;;;3.60;1.93;;;;;;;;;;472530;28;1229;-72
2023/10/04 00:11:01;;;;;;;3.97;1.80;;;;;;;;;;474180;28;1244;-72
2023/10/04 00:11:16;;;;;;;4.10;1.90;;;;;;;;;;471712;28;1046;-72
2023/10/04 00:11:32;;;;;;;3.73;1.93;;;;;;;;;;471106;28;1148;-72
2023/10/04 00:11:47;;;;;;;4.33;1.90;;;;;;;;;;474651;28;1100;-72
2023/10/04 00:12:03;;;;;;;4.20;1.97;;;;;;;;;;475166;28;1029;-72
2023/10/04 00:12:18;;;;;;;3.97;2.00;;;;;;;;;;471338;28;1186;-72
2023/10/04 00:12:33;;;;;;;3.43;1.90;;;;;;;;;;473030;28;1232;-72
2023/10/04 00:12:49;;;;;;;3.08;1.90;;;;;;;;;;474012;28;903;-72
2023/10/04 00:13:04;;;;;;;3.15;1.92;;;;;;;;;;473026;28;982;-72
2023/10/04 00:13:20;;;;;;;3.43;1.87;;;;;;;;;;470253;28;1204;-72
2023/10/04 00:13:35;;;;;;;4.77;1.90;;;;;;;;;;475847;28;1585;-72
2023/10/04 00:13:51;;;;;;;4.60;2.00;;;;;;;;;;476237;28;1051;-72
2023/10/04 00:14:07;;;;;;;3.90;1.97;;;;;;;;;;472633;28;1152;-71
2023/10/04 00:14:22;;;;;;;3.83;1.95;;;;;;;;;;470932;28;1223;-72
2023/10/04 00:14:37;;;;;;;3.93;1.90;;;;;;;;;;468179;28;1292;-72
2023/10/04 00:14:53;;;;;;;4.70;2.00;;;;;;;;;;469095;28;1030;-72
2023/10/04 00:15:14;;;;;;;5.10;1.87;;;;;;;;;;469214;28;883;-72
2023/10/04 00:15:31;;;;;;;3.58;1.80;;;;;;;;;;475661;28;1220;-72
2023/10/04 00:15:46;;;;;;;3.05;1.60;;;;;;;;;;473303;28;1287;-73
2023/10/04 00:16:03;;;;;;;3.67;1.70;;;;;;;;;;467509;29;1103;-73
2023/10/04 00:16:19;;;;;;;3.97;2.00;;;;;;;;;;468971;28;1153;-72
2023/10/04 00:16:34;;;;;;;4.40;1.97;;;;;;;;;;469775;29;1154;-71
2023/10/04 00:16:49;;;;;;;4.30;1.90;;;;;;;;;;468414;28;1363;-72
2023/10/04 00:17:04;;;;;;;4.10;1.98;;;;;;;;;;469108;28;1524;-72
2023/10/04 00:17:20;;;;;;;4.23;2.00;;;;;;;;;;468157;28;1142;-72
2023/10/04 00:17:37;;;;;;;3.92;2.00;;;;;;;;;;471460;28;1172;-72
2023/10/04 00:17:53;;;;;;;4.85;1.90;;;;;;;;;;475045;28;1096;-72
2023/10/04 00:18:09;;;;;;;4.43;1.80;;;;;;;;;;472665;28;1355;-72
2023/10/04 00:18:25;;;;;;;4.00;1.75;;;;;;;;;;473705;28;1402;-71
2023/10/04 00:18:40;;;;;;;4.47;1.80;;;;;;;;;;475842;28;927;-72
2023/10/04 00:18:56;;;;;;;4.80;1.70;;;;;;;;;;478494;28;1102;-71
2023/10/04 00:19:12;;;;;;;4.70;1.90;;;;;;;;;;477342;28;965;-72
2023/10/04 00:19:28;;;;;;;4.68;2.00;;;;;;;;;;475094;28;1057;-72
2023/10/04 00:19:43;;;;;;;4.63;1.90;;;;;;;;;;471276;28;1097;-72
2023/10/04 00:19:58;;;;;;;4.25;1.73;;;;;;;;;;468785;28;1102;-71
2023/10/04 00:20:17;;;;;;;4.10;1.77;;;;;;;;;;469882;28;1100;-72
2023/10/04 00:20:33;;;;;;;4.40;1.90;;;;;;;;;;470988;28;975;-72
2023/10/04 00:20:48;;;;;;;4.57;1.95;;;;;;;;;;472989;28;1209;-72
2023/10/04 00:21:06;;;;;;;4.47;1.90;;;;;;;;;;472757;28;1143;-72
2023/10/04 00:21:21;;;;;;;4.13;1.98;;;;;;;;;;469349;28;1088;-72
2023/10/04 00:21:37;;;;;;;4.57;2.10;;;;;;;;;;474878;28;1158;-71
2023/10/04 00:21:52;;;;;;;4.20;1.87;;;;;;;;;;471445;28;1219;-72
2023/10/04 00:22:07;;;;;;;3.40;1.70;;;;;;;;;;478172;28;1209;-71
2023/10/04 00:22:23;;;;;;;3.67;1.80;;;;;;;;;;470824;28;1232;-73
2023/10/04 00:22:40;;;;;;;4.15;1.77;;;;;;;;;;474900;28;1021;-72
2023/10/04 00:22:55;;;;;;;3.53;1.80;;;;;;;;;;477119;28;1040;-72
2023/10/04 00:23:13;;;;;;;2.90;1.73;;;;;;;;;;477193;28;2065;-72
2023/10/04 00:23:28;;;;;;;2.88;1.80;;;;;;;;;;476726;28;1591;-72
2023/10/04 00:23:44;;;;;;;3.75;1.80;;;;;;;;;;472451;28;1226;-72
2023/10/04 00:23:59;;;;;;;4.77;1.90;;;;;;;;;;473650;28;1526;-72
2023/10/04 00:24:14;;;;;;;5.00;2.00;;;;;;;;;;473909;28;1075;-72
2023/10/04 00:24:31;;;;;;;4.83;2.10;;;;;;;;;;472718;28;1224;-72
2023/10/04 00:24:50;;;;;;;3.90;1.98;;;;;;;;;;471183;28;1307;-72
2023/10/04 00:25:16;;;;;;;4.30;1.67;;;;;;;;;;473283;28;975;-72
2023/10/04 00:25:33;;;;;;;4.15;1.90;;;;;;;;;;471306;28;1300;-72
2023/10/04 00:25:48;;;;;;;3.60;1.90;;;;;;;;;;471611;28;1216;-72
2023/10/04 00:26:07;;;;;;;3.57;1.90;;;;;;;;;;468604;28;1399;-72
2023/10/04 00:26:22;;;;;;;3.08;1.83;;;;;;;;;;473923;28;1357;-72
2023/10/04 00:26:37;;;;;;;3.27;1.80;;;;;;;;;;474946;28;1149;-71
2023/10/04 00:26:52;;;;;;;3.92;1.92;;;;;;;;;;473253;28;1105;-72
2023/10/04 00:27:08;;;;;;;5.20;2.20;;;;;;;;;;472085;28;1249;-72
2023/10/04 00:27:23;;;;;;;4.60;1.97;;;;;;;;;;473865;28;923;-72
2023/10/04 00:27:42;;;;;;;3.30;1.80;;;;;;;;;;471354;28;2009;-71
2023/10/04 00:27:59;;;;;;;2.80;1.80;;;;;;;;;;469612;28;1002;-72
2023/10/04 00:28:14;;;;;;;3.85;1.98;;;;;;;;;;471218;28;1695;-72
2023/10/04 00:28:29;;;;;;;3.80;1.83;;;;;;;;;;473487;28;1166;-72
2023/10/04 00:28:45;;;;;;;3.58;1.75;;;;;;;;;;476554;28;1554;-71
2023/10/04 00:29:00;;;;;;;4.07;1.90;;;;;;;;;;472482;28;1075;-71
2023/10/04 00:29:17;;;;;;;3.55;1.90;;;;;;;;;;474298;28;1114;-72
2023/10/04 00:29:33;;;;;;;4.03;2.10;;;;;;;;;;472453;28;946;-71
2023/10/04 00:29:48;;;;;;;4.37;2.00;;;;;;;;;;471578;28;1143;-72
2023/10/04 00:30:05;;;;;;;3.40;1.83;;;;;;;;;;473028;28;1328;-73
2023/10/04 00:30:20;;;;;;;3.13;1.98;;;;;;;;;;473687;28;1293;-71
2023/10/04 00:30:36;;;;;;;3.30;1.87;;;;;;;;;;474382;28;1414;-72
2023/10/04 00:30:51;;;;;;;3.40;1.70;;;;;;;;;;471675;28;1146;-72
2023/10/04 00:31:06;;;;;;;3.45;1.77;;;;;;;;;;472167;28;1067;-72
2023/10/04 00:31:22;;;;;;;3.60;1.70;;;;;;;;;;468556;28;1362;-72
2023/10/04 00:31:37;;;;;;;3.10;1.60;;;;;;;;;;469261;29;1213;-71
2023/10/04 00:31:53;;;;;;;3.33;1.60;;;;;;;;;;473764;28;1229;-72
2023/10/04 00:32:08;;;;;;;4.50;1.80;;;;;;;;;;469908;28;907;-72
2023/10/04 00:32:23;;;;;;;4.68;1.90;;;;;;;;;;470163;28;1565;-72
2023/10/04 00:32:38;;;;;;;4.27;1.90;;;;;;;;;;473285;28;1439;-71
2023/10/04 00:32:55;;;;;;;3.77;2.00;;;;;;;;;;472436;28;1075;-72
2023/10/04 00:33:11;;;;;;;4.15;2.00;;;;;;;;;;474330;28;1271;-72
2023/10/04 00:33:26;;;;;;;4.17;1.77;;;;;;;;;;472788;28;1131;-72
2023/10/04 00:33:41;;;;;;;4.15;1.70;;;;;;;;;;473129;28;1209;-72
2023/10/04 00:33:57;;;;;;;4.67;1.80;;;;;;;;;;471425;28;1658;-72
2023/10/04 00:34:12;;;;;;;3.80;1.75;;;;;;;;;;470011;28;1119;-72
2023/10/04 00:34:29;;;;;;;2.97;1.80;;;;;;;;;;470491;28;1213;-72
2023/10/04 00:34:44;;;;;;;4.25;1.80;;;;;;;;;;474810;28;1327;-71
2023/10/04 00:34:59;;;;;;;5.15;1.90;;;;;;;;;;475964;28;1199;-72
2023/10/04 00:35:17;;;;;;;4.20;2.00;;;;;;;;;;475245;28;1151;-71
2023/10/04 00:35:32;;;;;;;4.32;2.08;;;;;;;;;;471014;28;1278;-72
2023/10/04 00:35:50;;;;;;;4.60;1.93;;;;;;;;;;469185;28;895;-72
2023/10/04 00:36:06;;;;;;;3.97;1.80;;;;;;;;;;472462;28;1108;-72
2023/10/04 00:36:22;;;;;;;3.42;1.83;;;;;;;;;;476532;28;1224;-72
2023/10/04 00:36:38;;;;;;;3.58;1.90;;;;;;;;;;469144;28;1131;-72
2023/10/04 00:36:53;;;;;;;3.53;1.83;;;;;;;;;;468208;28;1111;-72
2023/10/04 00:37:09;;;;;;;3.40;1.63;;;;;;;;;;469140;28;1180;-72
2023/10/04 00:37:26;;;;;;;3.47;1.60;;;;;;;;;;469219;28;1304;-71
2023/10/04 00:37:42;;;;;;;4.05;1.90;;;;;;;;;;473224;28;1216;-71
2023/10/04 00:37:59;;;;;;;4.30;2.03;;;;;;;;;;475197;28;992;-72
2023/10/04 00:38:17;;;;;;;3.80;1.90;;;;;;;;;;475285;28;1019;-72
2023/10/04 00:38:32;;;;;;;3.95;1.85;;;;;;;;;;473062;28;1410;-72
2023/10/04 00:38:48;;;;;;;3.47;1.92;;;;;;;;;;470302;28;1219;-71
2023/10/04 00:39:03;;;;;;;3.97;2.00;;;;;;;;;;471579;28;1284;-72
2023/10/04 00:39:19;;;;;;;3.53;1.98;;;;;;;;;;469992;28;1328;-72
2023/10/04 00:39:34;;;;;;;3.83;1.90;;;;;;;;;;473095;28;1272;-72
2023/10/04 00:39:49;;;;;;;4.30;1.80;;;;;;;;;;472923;28;1174;-71
2023/10/04 00:40:18;;;;;;;4.40;1.77;;;;;;;;;;476526;28;915;-71
2023/10/04 00:40:33;;;;;;;3.60;1.77;;;;;;;;;;473803;28;1129;-72
2023/10/04 00:40:50;;;;;;;3.30;1.80;;;;;;;;;;469539;28;942;-72
2023/10/04 00:41:08;;;;;;;3.05;1.77;;;;;;;;;;469746;28;1078;-72
2023/10/04 00:41:25;;;;;;;3.25;1.73;;;;;;;;;;469674;28;887;-71
2023/10/04 00:41:40;;;;;;;3.40;1.90;;;;;;;;;;475375;28;954;-71
2023/10/04 00:41:55;;;;;;;4.07;1.88;;;;;;;;;;476290;28;1078;-72
2023/10/04 00:42:18;;;;;;;4.40;1.80;;;;;;;;;;474112;28;953;-71
2023/10/04 00:42:35;;;;;;;3.13;1.67;;;;;;;;;;475816;28;1078;-71
2023/10/04 00:42:51;;;;;;;3.00;1.73;;;;;;;;;;477402;28;1309;-72
2023/10/04 00:43:12;;;;;;;3.28;1.80;;;;;;;;;;476494;28;1192;-72
2023/10/04 00:43:27;;;;;;;3.10;1.90;;;;;;;;;;474482;28;1167;-72
2023/10/04 00:43:49;;;;;;;2.77;1.87;;;;;;;;;;473705;28;1115;-72
2023/10/04 00:44:06;;;;;;;3.38;1.80;;;;;;;;;;472566;28;953;-72
2023/10/04 00:44:21;;;;;;;4.00;1.80;;;;;;;;;;476035;28;1002;-72
2023/10/04 00:44:37;;;;;;;3.50;1.63;;;;;;;;;;477039;28;1076;-71
2023/10/04 00:44:52;;;;;;;3.17;1.60;;;;;;;;;;476165;28;1099;-72
2023/10/04 00:45:13;;;;;;;2.95;1.67;;;;;;;;;;472545;28;942;-72
2023/10/04 00:45:31;;;;;;;3.80;1.98;;;;;;;;;;469707;28;1191;-72
2023/10/04 00:45:50;;;;;;;4.22;2.05;;;;;;;;;;470237;28;1049;-72
2023/10/04 00:46:05;;;;;;;3.65;1.95;;;;;;;;;;472948;28;1326;-72
2023/10/04 00:46:22;;;;;;;4.07;1.90;;;;;;;;;;471958;28;1070;-71
2023/10/04 00:46:41;;;;;;;4.68;1.83;;;;;;;;;;472747;28;1085;-72
2023/10/04 00:46:56;;;;;;;4.63;1.80;;;;;;;;;;474910;28;1260;-71
2023/10/04 00:47:12;;;;;;;3.83;1.80;;;;;;;;;;468448;28;1233;-72
2023/10/04 00:47:28;;;;;;;3.58;1.90;;;;;;;;;;472420;28;988;-71
2023/10/04 00:47:48;;;;;;;3.77;1.90;;;;;;;;;;472858;28;1940;-72
2023/10/04 00:48:10;;;;;;;3.55;1.80;;;;;;;;;;467267;28;938;-71
2023/10/04 00:48:31;;;;;;;3.85;1.80;;;;;;;;;;471158;28;1234;-72
2023/10/04 00:48:47;;;;;;;3.72;1.90;;;;;;;;;;474236;28;950;-72
2023/10/04 00:49:04;;;;;;;4.30;1.80;;;;;;;;;;477555;28;1304;-72
2023/10/04 00:49:19;;;;;;;4.70;2.00;;;;;;;;;;476904;28;1277;-72
2023/10/04 00:49:35;;;;;;;3.73;1.90;;;;;;;;;;468996;28;1324;-71
2023/10/04 00:49:52;;;;;;;4.22;1.80;;;;;;;;;;471594;28;1376;-72
2023/10/04 00:50:15;;;;;;;4.28;1.90;;;;;;;;;;468816;28;1280;-71
2023/10/04 00:50:31;;;;;;;4.28;1.63;;;;;;;;;;474226;28;1365;-72
2023/10/04 00:50:47;;;;;;;3.75;1.75;;;;;;;;;;474557;28;1226;-72
2023/10/04 00:51:02;;;;;;;3.90;1.80;;;;;;;;;;474181;28;1397;-72
2023/10/04 00:51:22;;;;;;;4.93;1.90;;;;;;;;;;470505;28;1118;-72
2023/10/04 00:51:38;;;;;;;4.22;1.92;;;;;;;;;;474913;28;938;-72
2023/10/04 00:51:53;;;;;;;3.50;1.95;;;;;;;;;;472082;28;1013;-72
2023/10/04 00:52:09;;;;;;;3.70;2.00;;;;;;;;;;472592;28;1169;-72
2023/10/04 00:52:24;;;;;;;3.40;1.83;;;;;;;;;;471128;28;1151;-71
2023/10/04 00:52:47;;;;;;;3.50;1.93;;;;;;;;;;469940;28;1278;-72
2023/10/04 00:53:06;;;;;;;3.90;2.05;;;;;;;;;;471646;28;974;-72
2023/10/04 00:53:22;;;;;;;4.25;1.90;;;;;;;;;;474106;28;1264;-71
2023/10/04 00:53:38;;;;;;;3.45;1.65;;;;;;;;;;475734;28;1323;-72
2023/10/04 00:53:55;;;;;;;3.50;1.80;;;;;;;;;;471980;28;1100;-72
2023/10/04 00:54:10;;;;;;;3.55;1.95;;;;;;;;;;470346;28;985;-71
2023/10/04 00:54:26;;;;;;;3.67;1.93;;;;;;;;;;473425;28;1219;-72
2023/10/04 00:54:41;;;;;;;4.18;1.95;;;;;;;;;;471158;28;1280;-71
2023/10/04 00:54:57;;;;;;;3.90;1.80;;;;;;;;;;472603;28;1258;-71
2023/10/04 00:55:16;;;;;;;2.93;1.60;;;;;;;;;;473773;28;1053;-72
2023/10/04 00:55:34;;;;;;;3.13;1.77;;;;;;;;;;474109;28;950;-71
2023/10/04 00:55:53;;;;;;;3.95;1.88;;;;;;;;;;470879;28;945;-71
2023/10/04 00:56:09;;;;;;;4.18;1.90;;;;;;;;;;472180;28;1484;-72
2023/10/04 00:56:24;;;;;;;5.07;2.03;;;;;;;;;;473461;28;1180;-71
2023/10/04 00:56:41;;;;;;;5.53;2.00;;;;;;;;;;471659;28;1184;-72
2023/10/04 00:56:56;;;;;;;4.40;1.80;;;;;;;;;;473257;28;1259;-72
2023/10/04 00:57:12;;;;;;;3.83;1.90;;;;;;;;;;467384;28;1087;-72
2023/10/04 00:57:28;;;;;;;4.10;1.95;;;;;;;;;;467289;28;1171;-72
2023/10/04 00:57:44;;;;;;;4.93;2.10;;;;;;;;;;467637;28;957;-71
2023/10/04 00:58:03;;;;;;;4.50;2.00;;;;;;;;;;467216;29;1091;-72
2023/10/04 00:58:19;;;;;;;3.22;1.83;;;;;;;;;;469185;28;1193;-72
2023/10/04 00:58:36;;;;;;;3.45;1.70;;;;;;;;;;469704;28;1155;-72
2023/10/04 00:58:53;;;;;;;4.20;1.80;;;;;;;;;;471679;28;899;-72
2023/10/04 00:59:09;;;;;;;3.90;1.80;;;;;;;;;;474406;28;1196;-72
2023/10/04 00:59:24;;;;;;;3.65;1.65;;;;;;;;;;477145;28;1136;-71
2023/10/04 00:59:42;;;;;;;3.90;1.77;;;;;;;;;;473106;28;1186;-72
2023/10/04 00:59:58;;;;;;;3.33;1.90;;;;;;;;;;470303;28;1342;-71
2023/10/04 01:00:14;;;;;;;3.15;1.88;;;;;;;;;;468303;28;1367;-72
2023/10/04 01:00:30;;;;;;;3.95;1.83;;;;;;;;;;466568;28;1075;-72
2023/10/04 01:00:47;;;;;;;4.23;2.00;;;;;;;;;;467428;29;1488;-71
2023/10/04 01:01:04;;;;;;;5.60;2.20;;;;;;;;;;464054;29;1125;-72
2023/10/04 01:01:21;;;;;;;5.03;1.92;;;;;;;;;;466092;28;1164;-72
2023/10/04 01:01:40;;;;;;;3.42;1.80;;;;;;;;;;469945;28;1096;-72
2023/10/04 01:01:56;;;;;;;2.97;1.85;;;;;;;;;;468974;28;1072;-71
2023/10/04 01:02:13;;;;;;;4.15;1.90;;;;;;;;;;465443;28;1090;-71
2023/10/04 01:02:29;;;;;;;4.90;1.80;;;;;;;;;;470661;28;930;-72
2023/10/04 01:02:44;;;;;;;3.67;1.70;;;;;;;;;;470365;28;1170;-72
2023/10/04 01:03:00;;;;;;;3.42;1.75;;;;;;;;;;470642;28;1272;-71
2023/10/04 01:03:19;;;;;;;4.03;1.70;;;;;;;;;;468104;28;1082;-72
2023/10/04 01:03:37;;;;;;;3.97;1.60;;;;;;;;;;472961;28;1306;-72
2023/10/04 01:03:52;;;;;;;4.05;1.90;;;;;;;;;;471796;28;1673;-71
2023/10/04 01:04:08;;;;;;;3.85;1.80;;;;;;;;;;471665;28;1055;-71
2023/10/04 01:04:27;;;;;;;3.20;1.70;;;;;;;;;;469374;28;927;-71
2023/10/04 01:04:42;;;;;;;6.15;1.80;;;;;;;;;;473848;28;966;-72
2023/10/04 01:04:57;;;;;;;5.88;1.92;;;;;;;;;;475448;28;1116;-72
2023/10/04 01:05:15;;;;;;;4.83;2.10;;;;;;;;;;473818;28;1208;-71
2023/10/04 01:05:32;;;;;;;4.82;2.05;;;;;;;;;;468830;28;1218;-71
2023/10/04 01:05:49;;;;;;;4.20;1.88;;;;;;;;;;466496;28;1590;-71
2023/10/04 01:06:05;;;;;;;4.20;1.95;;;;;;;;;;468018;28;1205;-71
2023/10/04 01:06:20;;;;;;;3.88;1.85;;;;;;;;;;469122;28;1330;-71
2023/10/04 01:06:36;;;;;;;2.83;1.70;;;;;;;;;;469114;28;970;-72
2023/10/04 01:06:51;;;;;;;2.78;1.70;;;;;;;;;;471724;28;946;-72
2023/10/04 01:07:07;;;;;;;3.10;1.70;;;;;;;;;;471470;28;1216;-71
2023/10/04 01:07:22;;;;;;;3.58;1.70;;;;;;;;;;472001;28;1309;-71
2023/10/04 01:07:39;;;;;;;3.53;1.70;;;;;;;;;;473944;28;1965;-72
2023/10/04 01:07:59;;;;;;;3.22;1.75;;;;;;;;;;470028;28;1202;-72
2023/10/04 01:08:15;;;;;;;3.80;1.92;;;;;;;;;;468772;28;1482;-72
2023/10/04 01:08:32;;;;;;;3.65;1.90;;;;;;;;;;467812;28;956;-72
2023/10/04 01:08:48;;;;;;;3.92;1.90;;;;;;;;;;468448;28;1204;-72
2023/10/04 01:09:05;;;;;;;4.72;2.00;;;;;;;;;;472054;28;1205;-72
2023/10/04 01:09:23;;;;;;;4.55;1.95;;;;;;;;;;475911;28;1483;-72
2023/10/04 01:09:38;;;;;;;4.53;1.80;;;;;;;;;;474275;28;1238;-72
2023/10/04 01:09:53;;;;;;;3.80;1.80;;;;;;;;;;476455;28;1139;-72
2023/10/04 01:10:16;;;;;;;3.80;1.70;;;;;;;;;;477611;28;1058;-72
2023/10/04 01:10:33;;;;;;;4.55;1.73;;;;;;;;;;472443;28;1151;-72
2023/10/04 01:10:50;;;;;;;4.28;1.80;;;;;;;;;;472116;28;1124;-71
2023/10/04 01:11:06;;;;;;;4.10;1.70;;;;;;;;;;474470;28;1260;-71
2023/10/04 01:11:22;;;;;;;3.83;1.80;;;;;;;;;;470189;28;1086;-72
2023/10/04 01:11:46;;;;;;;4.10;1.90;;;;;;;;;;469050;28;1325;-72
2023/10/04 01:12:04;;;;;;;5.22;1.80;;;;;;;;;;471202;28;1110;-71
2023/10/04 01:12:24;;;;;;;4.50;1.80;;;;;;;;;;473555;28;1176;-73
2023/10/04 01:12:40;;;;;;;3.67;1.67;;;;;;;;;;469165;28;1292;-72
2023/10/04 01:12:56;;;;;;;5.35;1.83;;;;;;;;;;470251;28;1080;-72
2023/10/04 01:13:12;;;;;;;6.00;1.80;;;;;;;;;;470557;28;1239;-72
2023/10/04 01:13:27;;;;;;;3.93;1.80;;;;;;;;;;475115;28;1041;-71
2023/10/04 01:13:43;;;;;;;4.35;2.00;;;;;;;;;;474394;28;1371;-71
2023/10/04 01:14:06;;;;;;;4.43;1.98;;;;;;;;;;472653;28;1457;-71
2023/10/04 01:14:26;;;;;;;4.35;1.98;;;;;;;;;;472741;28;899;-72
2023/10/04 01:14:47;;;;;;;3.63;1.80;;;;;;;;;;469114;28;970;-71
2023/10/04 01:15:25;;;;;;;3.28;1.77;;;;;;;;;;469362;28;951;-72
2023/10/04 01:15:41;;;;;;;3.72;2.00;;;;;;;;;;469372;28;1107;-72
2023/10/04 01:15:59;;;;;;;4.38;2.10;;;;;;;;;;470646;28;1535;-72
2023/10/04 01:16:15;;;;;;;4.05;1.90;;;;;;;;;;471726;28;1137;-72
2023/10/04 01:16:33;;;;;;;3.33;1.88;;;;;;;;;;469354;28;1276;-72
2023/10/04 01:16:51;;;;;;;3.80;2.13;;;;;;;;;;470240;28;899;-72
2023/10/04 01:17:12;;;;;;;4.43;1.88;;;;;;;;;;475480;28;958;-71
2023/10/04 01:17:28;;;;;;;4.28;1.70;;;;;;;;;;473447;28;961;-72
2023/10/04 01:17:43;;;;;;;5.25;1.90;;;;;;;;;;470453;28;1360;-72
2023/10/04 01:18:00;;;;;;;4.27;2.00;;;;;;;;;;470104;28;1197;-72
2023/10/04 01:18:16;;;;;;;3.65;1.90;;;;;;;;;;469170;28;1282;-72
2023/10/04 01:18:34;;;;;;;3.55;1.88;;;;;;;;;;470593;28;1127;-72
2023/10/04 01:18:50;;;;;;;3.40;1.80;;;;;;;;;;471131;28;1379;-72
2023/10/04 01:19:06;;;;;;;3.45;1.88;;;;;;;;;;472122;28;1294;-72
2023/10/04 01:19:22;;;;;;;4.25;1.95;;;;;;;;;;469041;28;1203;-72
2023/10/04 01:19:38;;;;;;;4.43;1.92;;;;;;;;;;470738;28;1347;-72
2023/10/04 01:19:53;;;;;;;3.65;1.70;;;;;;;;;;471912;28;1138;-71
2023/10/04 01:20:13;;;;;;;4.33;1.90;;;;;;;;;;470487;29;1267;-72
2023/10/04 01:20:30;;;;;;;4.40;1.80;;;;;;;;;;469185;28;1319;-72
2023/10/04 01:20:46;;;;;;;3.70;1.73;;;;;;;;;;467295;28;1032;-72
2023/10/04 01:21:01;;;;;;;4.53;1.77;;;;;;;;;;467125;29;1458;-72
2023/10/04 01:21:17;;;;;;;4.05;1.75;;;;;;;;;;467444;28;963;-72
2023/10/04 01:21:34;;;;;;;3.77;1.77;;;;;;;;;;467839;28;1162;-72
2023/10/04 01:21:51;;;;;;;3.30;1.70;;;;;;;;;;469066;28;1588;-72
2023/10/04 01:22:06;;;;;;;3.13;1.70;;;;;;;;;;470062;28;1280;-71
2023/10/04 01:22:22;;;;;;;3.30;1.70;;;;;;;;;;469801;28;1045;-72
2023/10/04 01:22:37;;;;;;;3.20;1.60;;;;;;;;;;470079;28;1401;-71
2023/10/04 01:22:52;;;;;;;3.50;1.70;;;;;;;;;;473757;28;1070;-71
2023/10/04 01:23:12;;;;;;;4.53;1.90;;;;;;;;;;469707;28;1210;-71
2023/10/04 01:23:28;;;;;;;4.80;1.92;;;;;;;;;;470914;28;1309;-71
2023/10/04 01:23:45;;;;;;;5.82;2.10;;;;;;;;;;474251;28;1063;-71
2023/10/04 01:24:03;;;;;;;5.30;2.10;;;;;;;;;;472027;28;1116;-71
2023/10/04 01:24:19;;;;;;;3.88;2.00;;;;;;;;;;469024;28;1098;-72
2023/10/04 01:24:38;;;;;;;3.67;1.70;;;;;;;;;;475338;28;1206;-71
2023/10/04 01:24:54;;;;;;;3.85;1.70;;;;;;;;;;472464;28;928;-72
2023/10/04 01:25:11;;;;;;;3.60;1.65;;;;;;;;;;467839;28;1078;-72
2023/10/04 01:25:31;;;;;;;4.07;1.77;;;;;;;;;;472462;28;911;-73
2023/10/04 01:25:47;;;;;;;3.97;1.83;;;;;;;;;;474984;28;965;-72
2023/10/04 01:26:02;;;;;;;3.35;1.50;;;;;;;;;;472151;28;1068;-72
2023/10/04 01:26:25;;;;;;;2.97;1.60;;;;;;;;;;472071;28;1016;-71
2023/10/04 01:26:41;;;;;;;3.90;1.88;;;;;;;;;;474256;28;882;-71
2023/10/04 01:26:58;;;;;;;4.07;1.75;;;;;;;;;;475012;28;1325;-72
2023/10/04 01:27:13;;;;;;;4.68;1.65;;;;;;;;;;475816;28;1313;-71
2023/10/04 01:27:29;;;;;;;5.00;1.73;;;;;;;;;;474961;28;1257;-72
2023/10/04 01:27:45;;;;;;;3.75;1.80;;;;;;;;;;477466;28;1946;-71
2023/10/04 01:28:11;;;;;;;2.88;1.63;;;;;;;;;;473836;28;1321;-72
2023/10/04 01:28:27;;;;;;;3.55;1.80;;;;;;;;;;474343;28;1584;-72
2023/10/04 01:28:46;;;;;;;4.00;1.83;;;;;;;;;;473796;28;886;-72
2023/10/04 01:29:07;;;;;;;3.35;1.63;;;;;;;;;;471154;28;2459;-72
2023/10/04 01:29:22;;;;;;;4.47;1.70;;;;;;;;;;472103;28;1679;-72
2023/10/04 01:29:38;;;;;;;3.57;1.70;;;;;;;;;;470381;28;1138;-72
2023/10/04 01:29:53;;;;;;;3.72;1.67;;;;;;;;;;470368;28;1058;-72
2023/10/04 01:30:13;;;;;;;4.10;1.80;;;;;;;;;;471535;28;1313;-72
2023/10/04 01:30:29;;;;;;;3.78;1.70;;;;;;;;;;468740;28;1457;-72
2023/10/04 01:30:47;;;;;;;4.35;1.70;;;;;;;;;;470051;28;890;-71
2023/10/04 01:31:02;;;;;;;5.40;1.92;;;;;;;;;;467751;28;1169;-71
2023/10/04 01:31:19;;;;;;;4.67;1.87;;;;;;;;;;467102;28;1046;-72
2023/10/04 01:31:35;;;;;;;3.85;1.80;;;;;;;;;;472803;28;1615;-72
2023/10/04 01:31:52;;;;;;;3.63;1.80;;;;;;;;;;472622;28;984;-71
2023/10/04 01:32:08;;;;;;;3.72;1.90;;;;;;;;;;472078;28;1156;-71
2023/10/04 01:32:24;;;;;;;3.70;1.95;;;;;;;;;;473791;28;919;-71
2023/10/04 01:32:39;;;;;;;3.78;1.77;;;;;;;;;;470647;28;1372;-72
2023/10/04 01:32:55;;;;;;;3.83;1.80;;;;;;;;;;472592;28;1022;-72
2023/10/04 01:33:18;;;;;;;3.03;1.73;;;;;;;;;;474070;28;995;-72
2023/10/04 01:33:33;;;;;;;3.80;1.75;;;;;;;;;;469824;28;883;-72
2023/10/04 01:33:49;;;;;;;3.90;1.58;;;;;;;;;;468465;28;1191;-72
2023/10/04 01:34:06;;;;;;;3.73;1.57;;;;;;;;;;473243;28;1271;-72
2023/10/04 01:34:22;;;;;;;3.10;1.67;;;;;;;;;;471366;28;1287;-72
2023/10/04 01:34:38;;;;;;;3.38;1.90;;;;;;;;;;471849;28;1204;-72
2023/10/04 01:34:53;;;;;;;4.28;1.83;;;;;;;;;;470878;28;1193;-72
2023/10/04 01:35:08;;;;;;;5.07;1.70;;;;;;;;;;472021;28;1189;-72
2023/10/04 01:35:24;;;;;;;4.80;1.60;;;;;;;;;;471969;28;1131;-72
2023/10/04 01:35:39;;;;;;;3.77;1.50;;;;;;;;;;470360;28;914;-72
2023/10/04 01:35:55;;;;;;;3.63;1.70;;;;;;;;;;470057;28;995;-72
2023/10/04 01:36:11;;;;;;;3.53;1.65;;;;;;;;;;474138;28;1052;-72
2023/10/04 01:36:26;;;;;;;3.50;1.77;;;;;;;;;;471198;28;1265;-72
2023/10/04 01:36:41;;;;;;;4.60;1.97;;;;;;;;;;470491;28;1131;-72
2023/10/04 01:36:57;;;;;;;4.47;1.98;;;;;;;;;;467945;28;1140;-72
2023/10/04 01:37:12;;;;;;;3.33;1.90;;;;;;;;;;468805;28;1312;-72
2023/10/04 01:37:31;;;;;;;3.73;2.00;;;;;;;;;;471037;28;996;-72
2023/10/04 01:37:46;;;;;;;3.53;1.83;;;;;;;;;;470580;28;1157;-73
2023/10/04 01:38:06;;;;;;;4.57;1.90;;;;;;;;;;471062;28;942;-72
2023/10/04 01:38:25;;;;;;;4.97;1.92;;;;;;;;;;474086;28;1295;-71
2023/10/04 01:38:42;;;;;;;4.65;1.80;;;;;;;;;;470124;28;1005;-72
2023/10/04 01:38:58;;;;;;;4.47;1.80;;;;;;;;;;471087;28;1193;-72
2023/10/04 01:39:20;;;;;;;3.77;1.60;;;;;;;;;;474072;28;1127;-72
2023/10/04 01:39:36;;;;;;;3.67;1.70;;;;;;;;;;474822;28;890;-72
2023/10/04 01:39:54;;;;;;;3.78;1.75;;;;;;;;;;474553;28;921;-71
2023/10/04 01:40:12;;;;;;;5.43;1.90;;;;;;;;;;479444;28;1234;-72
2023/10/04 01:40:31;;;;;;;6.22;1.90;;;;;;;;;;477591;28;1242;-72
2023/10/04 01:40:47;;;;;;;4.13;1.80;;;;;;;;;;474522;28;1082;-72
2023/10/04 01:41:04;;;;;;;3.42;1.80;;;;;;;;;;476506;28;902;-72
2023/10/04 01:41:19;;;;;;;3.70;1.85;;;;;;;;;;473731;28;1304;-72
2023/10/04 01:41:38;;;;;;;3.50;1.77;;;;;;;;;;475198;28;973;-72
2023/10/04 01:41:54;;;;;;;4.22;1.80;;;;;;;;;;473690;28;1448;-72
2023/10/04 01:42:11;;;;;;;4.60;1.90;;;;;;;;;;474361;28;1587;-72
2023/10/04 01:42:26;;;;;;;3.70;1.80;;;;;;;;;;473577;28;954;-72
2023/10/04 01:42:41;;;;;;;3.77;1.77;;;;;;;;;;475691;28;1057;-72
2023/10/04 01:42:57;;;;;;;3.22;1.70;;;;;;;;;;474384;28;879;-72
2023/10/04 01:43:15;;;;;;;3.57;1.67;;;;;;;;;;476735;28;845;-72
2023/10/04 01:43:31;;;;;;;3.72;1.70;;;;;;;;;;474847;28;1552;-72